createdAt,value
2023-04-17T00:00:24.018Z,20.80
2023-04-17T00:01:47.849Z,20.70
2023-04-17T00:02:50.812Z,21.00
2023-04-17T00:03:54.714Z,21.10
2023-04-17T00:04:57.950Z,20.90
2023-04-17T00:06:00.990Z,21.50
2023-04-17T00:07:04.528Z,21.30
2023-04-17T00:08:08.026Z,20.20
2023-04-17T00:09:12.486Z,22.00
2023-04-17T00:10:15.701Z,20.00
2023-04-17T00:11:19.023Z,21.10
2023-04-17T00:12:21.943Z,22.50
2023-04-17T00:13:24.804Z,21.90
2023-04-17T00:14:27.752Z,21.70
2023-04-17T00:15:30.649Z,22.00
2023-04-17T00:16:33.643Z,21.40
2023-04-17T00:17:36.618Z,20.80
2023-04-17T00:18:40.384Z,20.80
2023-04-17T00:19:43.269Z,20.40
2023-04-17T00:20:46.147Z,20.50
2023-04-17T00:21:48.984Z,20.80
2023-04-17T00:22:51.814Z,20.20
2023-04-17T00:23:54.616Z,21.30
2023-04-17T00:24:57.504Z,20.90
2023-04-17T00:26:00.443Z,21.40
2023-04-17T00:27:03.283Z,19.80
2023-04-17T00:28:06.182Z,20.70
2023-04-17T00:29:09.231Z,21.10
2023-04-17T00:30:12.642Z,20.50
2023-04-17T00:31:15.567Z,21.40
2023-04-17T00:32:19.320Z,20.80
2023-04-17T00:33:22.197Z,20.90
2023-04-17T00:34:25.093Z,21.20
2023-04-17T00:35:27.967Z,20.80
2023-04-17T00:36:32.076Z,20.90
2023-04-17T00:37:36.094Z,21.60
2023-04-17T00:38:39.463Z,21.50
2023-04-17T00:39:42.571Z,20.70
2023-04-17T00:40:46.386Z,21.00
2023-04-17T00:41:49.600Z,21.00
2023-04-17T00:42:56.166Z,20.90
2023-04-17T00:43:59.135Z,21.00
2023-04-17T00:45:02.085Z,21.00
2023-04-17T00:46:06.179Z,21.90
2023-04-17T00:47:09.622Z,21.10
2023-04-17T00:48:15.149Z,20.80
2023-04-17T00:49:18.888Z,21.10
2023-04-17T00:50:22.669Z,20.90
2023-04-17T00:51:25.920Z,20.70
2023-04-17T00:52:30.116Z,20.20
2023-04-17T00:53:33.634Z,21.30
2023-04-17T00:54:36.731Z,20.60
2023-04-17T00:55:42.731Z,20.90
2023-04-17T00:56:46.176Z,20.60
2023-04-17T00:57:50.489Z,21.10
2023-04-17T00:58:54.446Z,21.40
2023-04-17T00:59:58.431Z,21.60
2023-04-17T01:01:01.376Z,21.70
2023-04-17T01:02:04.615Z,22.00
2023-04-17T01:03:08.723Z,22.90
2023-04-17T01:04:12.681Z,21.00
2023-04-17T01:05:16.176Z,21.90
2023-04-17T01:06:20.033Z,22.30
2023-04-17T01:07:23.099Z,21.70
2023-04-17T01:08:26.206Z,21.90
2023-04-17T01:09:29.079Z,20.50
2023-04-17T01:10:31.983Z,21.70
2023-04-17T01:11:34.839Z,21.80
2023-04-17T01:12:37.935Z,22.60
2023-04-17T01:13:47.190Z,20.60
2023-04-17T01:14:51.756Z,21.40
2023-04-17T01:15:54.648Z,21.40
2023-04-17T01:16:58.240Z,22.90
2023-04-17T01:18:02.406Z,21.00
2023-04-17T01:19:06.273Z,22.70
2023-04-17T01:20:11.955Z,21.90
2023-04-17T01:21:15.311Z,22.60
2023-04-17T01:22:20.698Z,21.80
2023-04-17T01:23:24.113Z,22.20
2023-04-17T01:24:26.977Z,21.90
2023-04-17T01:25:30.183Z,21.70
2023-04-17T01:26:33.986Z,21.80
2023-04-17T01:27:37.793Z,21.50
2023-04-17T01:28:41.557Z,21.90
2023-04-17T01:29:45.455Z,21.80
2023-04-17T01:30:48.637Z,21.70
2023-04-17T01:31:51.587Z,22.90
2023-04-17T01:32:56.007Z,23.30
2023-04-17T01:34:00.601Z,23.60
2023-04-17T01:35:04.180Z,22.20
2023-04-17T01:36:07.292Z,21.60
2023-04-17T01:37:10.321Z,21.50
2023-04-17T01:38:13.220Z,21.50
2023-04-17T01:39:17.913Z,22.90
2023-04-17T01:40:20.906Z,22.30
2023-04-17T01:41:24.420Z,22.80
2023-04-17T01:42:27.588Z,22.30
2023-04-17T01:43:30.563Z,21.90
2023-04-17T01:44:33.527Z,22.20
2023-04-17T01:45:36.439Z,22.00
2023-04-17T01:46:39.411Z,21.70
2023-04-17T01:47:42.450Z,23.40
2023-04-17T01:48:45.387Z,21.80
2023-04-17T01:49:48.268Z,21.60
2023-04-17T01:50:51.180Z,23.20
2023-04-17T01:51:54.465Z,21.60
2023-04-17T01:52:57.327Z,21.90
2023-04-17T01:54:00.411Z,21.30
2023-04-17T01:55:04.407Z,23.20
2023-04-17T01:56:07.555Z,20.60
2023-04-17T01:57:10.978Z,22.50
2023-04-17T01:58:13.867Z,20.80
2023-04-17T01:59:17.034Z,20.90
2023-04-17T02:00:20.578Z,21.30
2023-04-17T02:01:23.583Z,21.70
2023-04-17T02:02:26.669Z,22.90
2023-04-17T02:03:31.502Z,22.30
2023-04-17T02:04:34.592Z,23.30
2023-04-17T02:05:37.576Z,23.60
2023-04-17T02:06:41.566Z,22.80
2023-04-17T02:07:44.547Z,24.50
2023-04-17T02:08:47.390Z,22.40
2023-04-17T02:09:50.380Z,23.00
2023-04-17T02:10:53.323Z,22.70
2023-04-17T02:11:56.985Z,22.30
2023-04-17T02:12:59.852Z,22.10
2023-04-17T02:14:02.908Z,21.90
2023-04-17T02:15:07.343Z,21.00
2023-04-17T02:16:12.521Z,22.20
2023-04-17T02:17:18.355Z,22.60
2023-04-17T02:18:21.308Z,21.90
2023-04-17T02:19:24.246Z,21.20
2023-04-17T02:20:27.194Z,21.00
2023-04-17T02:21:30.058Z,22.00
2023-04-17T02:22:33.210Z,20.50
2023-04-17T02:23:36.088Z,20.60
2023-04-17T02:24:40.011Z,21.00
2023-04-17T02:25:43.589Z,21.10
2023-04-17T02:26:46.578Z,21.20
2023-04-17T02:27:49.431Z,21.80
2023-04-17T02:28:52.270Z,21.10
2023-04-17T02:29:55.997Z,21.90
2023-04-17T02:30:59.256Z,20.30
2023-04-17T02:32:02.163Z,22.60
2023-04-17T02:33:06.229Z,22.00
2023-04-17T02:34:09.364Z,20.60
2023-04-17T02:35:12.390Z,21.70
2023-04-17T02:36:16.272Z,21.50
2023-04-17T02:37:21.165Z,20.90
2023-04-17T02:38:24.372Z,22.00
2023-04-17T02:39:27.368Z,22.30
2023-04-17T02:40:30.296Z,20.70
2023-04-17T02:41:37.180Z,20.90
2023-04-17T02:42:40.653Z,21.70
2023-04-17T02:43:43.588Z,21.90
2023-04-17T02:44:49.048Z,19.90
2023-04-17T02:45:51.947Z,21.40
2023-04-17T02:46:54.986Z,21.20
2023-04-17T02:47:58.909Z,20.80
2023-04-17T02:49:01.876Z,21.30
2023-04-17T02:50:05.449Z,21.40
2023-04-17T02:51:11.818Z,21.20
2023-04-17T02:52:14.787Z,20.10
2023-04-17T02:53:17.759Z,20.80
2023-04-17T02:54:20.764Z,22.00
2023-04-17T02:55:25.005Z,21.40
2023-04-17T02:56:27.885Z,21.90
2023-04-17T02:57:30.745Z,21.30
2023-04-17T02:58:33.566Z,21.50
2023-04-17T02:59:36.609Z,21.30
2023-04-17T03:00:40.507Z,21.10
2023-04-17T03:01:45.871Z,20.90
2023-04-17T03:02:49.670Z,21.90
2023-04-17T03:03:53.073Z,21.90
2023-04-17T03:04:56.413Z,22.10
2023-04-17T03:05:59.313Z,21.80
2023-04-17T03:07:04.700Z,20.90
2023-04-17T03:08:08.531Z,20.90
2023-04-17T03:09:20.944Z,20.70
2023-04-17T03:10:23.792Z,20.90
2023-04-17T03:11:26.712Z,19.30
2023-04-17T03:12:29.646Z,19.00
2023-04-17T03:13:35.630Z,20.50
2023-04-17T03:14:38.519Z,19.80
2023-04-17T03:15:41.486Z,19.70
2023-04-17T03:16:44.574Z,20.00
2023-04-17T03:17:47.599Z,20.60
2023-04-17T03:18:50.816Z,19.90
2023-04-17T03:19:54.128Z,20.50
2023-04-17T03:20:57.905Z,20.30
2023-04-17T03:22:01.863Z,20.00
2023-04-17T03:23:05.801Z,20.30
2023-04-17T03:24:11.637Z,20.30
2023-04-17T03:25:14.663Z,19.90
2023-04-17T03:26:25.075Z,19.70
2023-04-17T03:27:28.362Z,20.80
2023-04-17T03:28:31.415Z,19.50
2023-04-17T03:29:34.330Z,20.60
2023-04-17T03:30:37.198Z,21.40
2023-04-17T03:31:41.896Z,20.60
2023-04-17T03:32:44.852Z,20.50
2023-04-17T03:33:47.806Z,22.20
2023-04-17T03:34:50.876Z,22.00
2023-04-17T03:35:53.799Z,22.20
2023-04-17T03:36:56.671Z,23.50
2023-04-17T03:37:59.648Z,23.10
2023-04-17T03:39:02.611Z,23.80
2023-04-17T03:40:06.843Z,23.10
2023-04-17T03:41:10.417Z,23.20
2023-04-17T03:42:14.787Z,22.80
2023-04-17T03:43:17.866Z,24.10
2023-04-17T03:44:21.747Z,24.30
2023-04-17T03:45:25.016Z,23.30
2023-04-17T03:46:28.008Z,22.50
2023-04-17T03:47:31.049Z,23.70
2023-04-17T03:48:33.984Z,22.60
2023-04-17T03:49:36.894Z,24.50
2023-04-17T03:50:40.188Z,24.20
2023-04-17T03:51:43.385Z,23.00
2023-04-17T03:52:53.190Z,24.40
2023-04-17T03:53:56.139Z,24.00
2023-04-17T03:54:59.778Z,24.30
2023-04-17T03:56:02.769Z,23.20
2023-04-17T03:57:09.195Z,23.80
2023-04-17T03:58:12.153Z,23.40
2023-04-17T03:59:15.337Z,23.20
2023-04-17T04:00:19.570Z,23.40
2023-04-17T04:01:23.702Z,24.00
2023-04-17T04:02:37.982Z,22.70
2023-04-17T04:03:41.417Z,24.00
2023-04-17T04:04:44.552Z,21.90
2023-04-17T04:05:50.416Z,24.60
2023-04-17T04:06:58.175Z,22.90
2023-04-17T04:08:01.572Z,23.70
2023-04-17T04:09:10.192Z,22.70
2023-04-17T04:10:13.300Z,22.50
2023-04-17T04:11:16.658Z,23.70
2023-04-17T04:12:19.598Z,22.60
2023-04-17T04:13:22.577Z,22.80
2023-04-17T04:14:31.654Z,23.30
2023-04-17T04:15:34.559Z,22.20
2023-04-17T04:16:39.354Z,23.00
2023-04-17T04:17:47.048Z,22.20
2023-04-17T04:18:50.070Z,22.40
2023-04-17T04:19:54.885Z,22.40
2023-04-17T04:20:57.829Z,22.20
2023-04-17T04:22:07.983Z,22.50
2023-04-17T04:23:21.107Z,21.40
2023-04-17T04:24:25.739Z,22.10
2023-04-17T04:25:28.843Z,23.00
2023-04-17T04:26:49.694Z,22.20
2023-04-17T04:27:53.682Z,21.60
2023-04-17T04:29:00.329Z,22.00
2023-04-17T04:30:13.120Z,22.30
2023-04-17T04:31:20.681Z,22.10
2023-04-17T04:32:25.723Z,20.80
2023-04-17T04:33:29.574Z,21.70
2023-04-17T04:34:33.255Z,23.00
2023-04-17T04:35:37.260Z,21.70
2023-04-17T04:36:49.979Z,20.50
2023-04-17T04:38:30.204Z,21.10
2023-04-17T04:39:34.504Z,21.10
2023-04-17T04:40:38.445Z,21.60
2023-04-17T04:41:45.934Z,21.40
2023-04-17T04:42:49.924Z,21.30
2023-04-17T04:44:01.286Z,20.70
2023-04-17T04:45:05.193Z,21.20
2023-04-17T04:46:09.400Z,22.10
2023-04-17T04:47:15.560Z,21.50
2023-04-17T04:48:18.496Z,22.30
2023-04-17T04:49:21.473Z,22.30
2023-04-17T04:50:24.746Z,21.60
2023-04-17T04:51:27.868Z,20.70
2023-04-17T04:52:31.035Z,22.70
2023-04-17T04:53:36.036Z,21.80
2023-04-17T04:54:38.861Z,21.50
2023-04-17T04:55:41.773Z,22.40
2023-04-17T04:56:45.083Z,21.50
2023-04-17T04:57:48.975Z,21.20
2023-04-17T04:58:52.247Z,20.40
2023-04-17T04:59:56.193Z,21.70
2023-04-17T05:01:06.863Z,21.40
2023-04-17T05:02:13.686Z,21.80
2023-04-17T05:03:17.083Z,21.30
2023-04-17T05:04:20.889Z,21.60
2023-04-17T05:05:25.588Z,20.60
2023-04-17T05:06:29.777Z,21.80
2023-04-17T05:07:35.760Z,20.60
2023-04-17T05:08:42.521Z,20.30
2023-04-17T05:09:47.579Z,21.00
2023-04-17T05:10:52.121Z,20.80
2023-04-17T05:11:55.072Z,19.60
2023-04-17T05:12:58.258Z,20.10
2023-04-17T05:14:01.183Z,20.60
2023-04-17T05:15:07.242Z,20.10
2023-04-17T05:16:10.266Z,19.70
2023-04-17T05:17:13.235Z,19.80
2023-04-17T05:18:16.150Z,19.60
2023-04-17T05:19:19.809Z,19.50
2023-04-17T05:20:28.418Z,19.50
2023-04-17T05:21:33.996Z,19.30
2023-04-17T05:22:38.943Z,19.60
2023-04-17T05:23:47.603Z,19.60
2023-04-17T05:25:10.521Z,20.60
2023-04-17T05:26:13.723Z,19.70
2023-04-17T05:27:16.823Z,19.50
2023-04-17T05:28:20.690Z,19.60
2023-04-17T05:29:25.738Z,19.60
2023-04-17T05:30:29.191Z,20.50
2023-04-17T05:31:41.792Z,19.40
2023-04-17T05:32:52.502Z,20.40
2023-04-17T05:34:14.310Z,19.70
2023-04-17T05:35:17.437Z,19.80
2023-04-17T05:36:20.731Z,20.30
2023-04-17T05:37:23.838Z,19.90
2023-04-17T05:38:26.734Z,19.70
2023-04-17T05:39:29.698Z,20.10
2023-04-17T05:40:32.602Z,20.30
2023-04-17T05:41:35.727Z,20.70
2023-04-17T05:42:38.688Z,19.40
2023-04-17T05:43:43.086Z,20.40
2023-04-17T05:44:46.002Z,19.90
2023-04-17T05:45:49.308Z,20.60
2023-04-17T05:46:52.243Z,19.90
2023-04-17T05:47:55.661Z,19.10
2023-04-17T05:48:58.566Z,20.30
2023-04-17T05:50:01.637Z,20.00
2023-04-17T05:51:05.228Z,20.70
2023-04-17T05:52:08.686Z,19.20
2023-04-17T05:53:14.278Z,18.80
2023-04-17T05:54:24.916Z,19.00
2023-04-17T05:55:28.082Z,19.80
2023-04-17T05:56:32.871Z,19.30
2023-04-17T05:57:36.565Z,20.00
2023-04-17T05:58:39.589Z,17.90
2023-04-17T05:59:43.252Z,20.00
2023-04-17T06:00:46.348Z,20.30
2023-04-17T06:01:50.265Z,18.70
2023-04-17T06:02:56.357Z,19.00
2023-04-17T06:04:08.301Z,19.10
2023-04-17T06:05:11.731Z,19.20
2023-04-17T06:06:16.182Z,18.90
2023-04-17T06:07:19.689Z,18.40
2023-04-17T06:08:22.634Z,18.90
2023-04-17T06:09:25.933Z,18.90
2023-04-17T06:10:28.904Z,18.90
2023-04-17T06:11:32.054Z,17.80
2023-04-17T06:12:35.551Z,18.20
2023-04-17T06:13:39.142Z,18.90
2023-04-17T06:14:42.834Z,17.80
2023-04-17T06:15:46.088Z,17.00
2023-04-17T06:16:50.973Z,17.00
2023-04-17T06:17:53.915Z,16.90
2023-04-17T06:18:56.821Z,16.80
2023-04-17T06:19:59.740Z,16.30
2023-04-17T06:21:02.678Z,18.00
2023-04-17T06:22:06.052Z,16.80
2023-04-17T06:23:09.012Z,16.60
2023-04-17T06:24:12.019Z,16.60
2023-04-17T06:25:20.401Z,17.50
2023-04-17T06:26:23.313Z,16.30
2023-04-17T06:27:26.343Z,16.80
2023-04-17T06:28:29.658Z,18.10
2023-04-17T06:29:32.716Z,17.90
2023-04-17T06:30:36.101Z,17.00
2023-04-17T06:31:39.351Z,17.30
2023-04-17T06:32:43.610Z,17.10
2023-04-17T06:33:47.950Z,16.50
2023-04-17T06:34:58.994Z,15.60
2023-04-17T06:36:14.505Z,16.00
2023-04-17T06:38:27.212Z,16.10
2023-04-17T06:39:31.782Z,16.40
2023-04-17T06:40:35.892Z,16.90
2023-04-17T06:41:40.909Z,17.20
2023-04-17T06:42:43.885Z,16.10
2023-04-17T06:43:54.580Z,15.30
2023-04-17T06:44:57.461Z,15.90
2023-04-17T06:46:00.681Z,15.80
2023-04-17T06:47:05.425Z,15.60
2023-04-17T06:48:08.532Z,15.70
2023-04-17T06:49:12.153Z,15.70
2023-04-17T06:50:16.912Z,15.90
2023-04-17T06:51:21.327Z,15.10
2023-04-17T06:52:24.284Z,14.90
2023-04-17T06:53:27.433Z,15.50
2023-04-17T06:54:30.324Z,14.90
2023-04-17T06:55:33.205Z,15.50
2023-04-17T06:56:36.099Z,15.60
2023-04-17T06:57:39.298Z,14.70
2023-04-17T06:58:44.584Z,15.30
2023-04-17T06:59:47.657Z,15.30
2023-04-17T07:00:50.534Z,15.90
2023-04-17T07:01:53.487Z,15.80
2023-04-17T07:02:56.614Z,15.70
2023-04-17T07:03:59.636Z,14.90
2023-04-17T07:05:09.446Z,15.50
2023-04-17T07:06:12.454Z,15.40
2023-04-17T07:07:15.998Z,16.00
2023-04-17T07:08:22.424Z,14.90
2023-04-17T07:09:26.458Z,15.00
2023-04-17T07:10:29.374Z,14.50
2023-04-17T07:11:32.362Z,15.60
2023-04-17T07:12:35.311Z,14.70
2023-04-17T07:13:38.209Z,15.30
2023-04-17T07:14:41.089Z,15.10
2023-04-17T07:15:44.132Z,15.00
2023-04-17T07:16:47.272Z,14.30
2023-04-17T07:17:50.709Z,14.30
2023-04-17T07:18:53.588Z,15.10
2023-04-17T07:19:56.755Z,15.70
2023-04-17T07:20:59.784Z,17.10
2023-04-17T07:22:02.833Z,24.70
2023-04-17T07:23:05.727Z,32.80
2023-04-17T07:24:08.621Z,31.50
2023-04-17T07:25:11.523Z,19.00
2023-04-17T07:26:14.498Z,16.80
2023-04-17T07:27:18.079Z,16.50
2023-04-17T07:28:21.406Z,17.30
2023-04-17T07:29:24.386Z,18.90
2023-04-17T07:30:27.290Z,16.90
2023-04-17T07:31:30.258Z,14.70
2023-04-17T07:32:33.219Z,15.60
2023-04-17T07:33:40.073Z,15.50
2023-04-17T07:34:43.539Z,15.90
2023-04-17T07:35:46.472Z,15.30
2023-04-17T07:36:50.368Z,14.80
2023-04-17T07:37:53.566Z,15.50
2023-04-17T07:38:56.539Z,14.60
2023-04-17T07:39:59.463Z,15.70
2023-04-17T07:41:02.664Z,15.50
2023-04-17T07:42:07.428Z,15.00
2023-04-17T07:43:10.355Z,14.00
2023-04-17T07:44:13.302Z,14.00
2023-04-17T07:45:16.198Z,13.30
2023-04-17T07:46:19.115Z,14.50
2023-04-17T07:47:22.242Z,14.80
2023-04-17T07:48:25.338Z,14.40
2023-04-17T07:49:28.305Z,15.00
2023-04-17T07:50:32.409Z,14.90
2023-04-17T07:51:35.700Z,14.30
2023-04-17T07:52:39.047Z,14.10
2023-04-17T07:53:42.155Z,14.00
2023-04-17T07:54:45.404Z,13.70
2023-04-17T07:55:49.659Z,13.50
2023-04-17T07:56:52.682Z,13.60
2023-04-17T07:57:55.652Z,13.70
2023-04-17T07:58:58.530Z,13.50
2023-04-17T08:00:02.067Z,12.80
2023-04-17T08:01:15.837Z,12.50
2023-04-17T08:02:21.325Z,12.10
2023-04-17T08:03:26.165Z,13.30
2023-04-17T08:04:29.566Z,13.10
2023-04-17T08:05:32.680Z,12.10
2023-04-17T08:06:35.875Z,11.70
2023-04-17T08:07:40.202Z,13.30
2023-04-17T08:08:47.550Z,12.10
2023-04-17T08:09:51.205Z,11.90
2023-04-17T08:10:54.127Z,12.00
2023-04-17T08:11:58.322Z,12.80
2023-04-17T08:13:02.037Z,12.60
2023-04-17T08:14:04.917Z,12.10
2023-04-17T08:15:08.824Z,12.40
2023-04-17T08:16:11.818Z,13.10
2023-04-17T08:17:15.947Z,12.50
2023-04-17T08:18:18.778Z,12.30
2023-04-17T08:19:21.673Z,12.90
2023-04-17T08:20:24.730Z,12.40
2023-04-17T08:21:27.957Z,12.00
2023-04-17T08:22:30.863Z,11.80
2023-04-17T08:23:33.799Z,11.70
2023-04-17T08:24:37.344Z,12.30
2023-04-17T08:25:40.359Z,11.80
2023-04-17T08:26:44.130Z,11.50
2023-04-17T08:27:47.169Z,12.60
2023-04-17T08:28:50.049Z,12.60
2023-04-17T08:29:53.771Z,12.00
2023-04-17T08:30:57.230Z,12.60
2023-04-17T08:32:13.454Z,12.60
2023-04-17T08:33:18.662Z,12.00
2023-04-17T08:34:21.672Z,13.10
2023-04-17T08:35:25.473Z,12.40
2023-04-17T08:36:28.697Z,11.80
2023-04-17T08:37:32.230Z,12.40
2023-04-17T08:38:35.592Z,12.00
2023-04-17T08:39:38.524Z,11.90
2023-04-17T08:40:47.171Z,11.70
2023-04-17T08:41:57.652Z,12.00
2023-04-17T08:43:02.190Z,12.30
2023-04-17T08:44:05.463Z,12.30
2023-04-17T08:45:11.030Z,12.50
2023-04-17T08:46:15.040Z,12.00
2023-04-17T08:47:18.389Z,12.20
2023-04-17T08:48:22.801Z,13.20
2023-04-17T08:49:28.572Z,12.90
2023-04-17T08:50:32.269Z,12.40
2023-04-17T08:51:35.911Z,13.20
2023-04-17T08:52:49.895Z,11.90
2023-04-17T08:53:52.739Z,12.40
2023-04-17T08:54:55.759Z,11.80
2023-04-17T08:56:06.251Z,12.40
2023-04-17T08:57:10.496Z,11.40
2023-04-17T08:58:14.776Z,12.10
2023-04-17T08:59:18.048Z,11.90
2023-04-17T09:00:29.143Z,12.30
2023-04-17T09:01:38.527Z,13.10
2023-04-17T09:02:55.502Z,12.10
2023-04-17T09:03:58.807Z,12.60
2023-04-17T09:05:02.118Z,12.40
2023-04-17T09:06:05.522Z,10.90
2023-04-17T09:07:13.618Z,11.60
2023-04-17T09:08:20.742Z,12.40
2023-04-17T09:09:25.293Z,13.30
2023-04-17T09:10:44.470Z,12.20
2023-04-17T09:12:13.127Z,11.80
2023-04-17T09:13:18.141Z,11.60
2023-04-17T09:14:30.840Z,11.40
2023-04-17T09:15:35.178Z,11.30
2023-04-17T09:16:54.036Z,11.60
2023-04-17T09:17:56.955Z,11.00
2023-04-17T09:19:07.071Z,11.70
2023-04-17T09:20:12.267Z,10.60
2023-04-17T09:21:18.404Z,12.10
2023-04-17T09:22:22.553Z,12.00
2023-04-17T09:23:27.185Z,12.50
2023-04-17T09:24:37.892Z,13.20
2023-04-17T09:25:40.860Z,12.60
2023-04-17T09:26:43.694Z,12.10
2023-04-17T09:27:47.110Z,13.10
2023-04-17T09:29:14.732Z,12.70
2023-04-17T09:30:17.768Z,13.10
2023-04-17T09:31:26.453Z,13.30
2023-04-17T09:33:34.542Z,12.70
2023-04-17T09:34:41.398Z,12.80
2023-04-17T09:35:44.296Z,13.00
2023-04-17T09:36:47.144Z,13.60
2023-04-17T09:37:54.892Z,12.60
2023-04-17T09:39:00.321Z,12.50
2023-04-17T09:40:08.096Z,13.10
2023-04-17T09:41:25.551Z,13.30
2023-04-17T09:42:28.803Z,13.10
2023-04-17T09:43:44.375Z,13.60
2023-04-17T09:44:48.388Z,12.60
2023-04-17T09:45:52.406Z,12.10
2023-04-17T09:46:56.124Z,12.30
2023-04-17T09:48:01.110Z,12.60
2023-04-17T09:49:50.278Z,12.80
2023-04-17T09:50:54.094Z,12.10
2023-04-17T09:52:01.500Z,11.90
2023-04-17T09:53:06.085Z,13.40
2023-04-17T09:54:15.069Z,13.30
2023-04-17T09:55:23.638Z,13.90
2023-04-17T09:56:29.726Z,14.70
2023-04-17T09:57:33.900Z,13.50
2023-04-17T09:58:38.268Z,12.70
2023-04-17T09:59:42.033Z,13.60
2023-04-17T10:00:45.462Z,13.00
2023-04-17T10:01:48.613Z,12.80
2023-04-17T10:02:52.540Z,13.40
2023-04-17T10:03:57.364Z,13.10
2023-04-17T10:05:02.525Z,12.80
2023-04-17T10:06:06.165Z,12.40
2023-04-17T10:07:09.515Z,12.40
2023-04-17T10:08:12.521Z,13.00
2023-04-17T10:09:16.457Z,12.50
2023-04-17T10:10:26.549Z,12.60
2023-04-17T10:11:34.443Z,12.00
2023-04-17T10:12:40.013Z,12.50
2023-04-17T10:13:47.294Z,11.30
2023-04-17T10:14:51.937Z,12.70
2023-04-17T10:15:54.940Z,11.70
2023-04-17T10:16:58.200Z,11.60
2023-04-17T10:18:25.836Z,11.40
2023-04-17T10:19:31.787Z,11.20
2023-04-17T10:20:36.129Z,10.90
2023-04-17T10:21:40.835Z,11.30
2023-04-17T10:22:45.198Z,10.70
2023-04-17T10:23:48.939Z,11.80
2023-04-17T10:25:13.110Z,11.70
2023-04-17T10:26:25.335Z,11.00
2023-04-17T10:27:28.317Z,10.80
2023-04-17T10:28:53.199Z,12.20
2023-04-17T10:30:00.967Z,12.60
2023-04-17T10:31:03.904Z,12.40
2023-04-17T10:32:14.112Z,11.30
2023-04-17T10:33:19.954Z,11.60
2023-04-17T10:34:43.957Z,11.70
2023-04-17T10:35:47.931Z,12.30
2023-04-17T10:36:50.982Z,12.30
2023-04-17T10:38:03.497Z,12.00
2023-04-17T10:39:18.136Z,11.80
2023-04-17T10:40:23.474Z,11.40
2023-04-17T10:41:27.350Z,11.40
2023-04-17T10:42:30.495Z,10.10
2023-04-17T10:43:33.509Z,10.40
2023-04-17T10:44:40.005Z,10.70
2023-04-17T10:46:01.820Z,11.20
2023-04-17T10:47:14.499Z,11.00
2023-04-17T10:48:45.246Z,11.10
2023-04-17T10:49:54.760Z,10.40
2023-04-17T10:50:57.660Z,10.20
2023-04-17T10:52:00.516Z,10.70
2023-04-17T10:53:04.584Z,10.00
2023-04-17T10:54:10.390Z,10.40
2023-04-17T10:55:23.192Z,10.30
2023-04-17T10:56:40.407Z,10.50
2023-04-17T10:57:58.402Z,10.80
2023-04-17T10:59:20.836Z,9.90
2023-04-17T11:00:38.748Z,9.20
2023-04-17T11:01:47.876Z,10.40
2023-04-17T11:02:51.270Z,10.20
2023-04-17T11:03:54.442Z,10.10
2023-04-17T11:05:07.306Z,10.30
2023-04-17T11:06:12.370Z,10.60
2023-04-17T11:07:17.043Z,10.40
2023-04-17T11:08:20.317Z,11.10
2023-04-17T11:09:25.548Z,10.40
2023-04-17T11:10:28.570Z,10.80
2023-04-17T11:11:44.781Z,10.80
2023-04-17T11:12:49.558Z,11.00
2023-04-17T11:13:52.504Z,10.10
2023-04-17T11:15:02.465Z,10.20
2023-04-17T11:16:05.997Z,9.90
2023-04-17T11:17:09.371Z,10.60
2023-04-17T11:18:13.317Z,10.70
2023-04-17T11:19:23.021Z,10.60
2023-04-17T11:20:30.661Z,10.60
2023-04-17T11:21:33.682Z,10.70
2023-04-17T11:22:36.657Z,10.80
2023-04-17T11:23:40.737Z,10.70
2023-04-17T11:24:43.598Z,10.30
2023-04-17T11:25:47.479Z,10.90
2023-04-17T11:26:51.212Z,10.50
2023-04-17T11:27:58.122Z,10.70
2023-04-17T11:29:02.008Z,10.30
2023-04-17T11:30:05.721Z,10.00
2023-04-17T11:31:09.342Z,10.80
2023-04-17T11:32:12.772Z,11.00
2023-04-17T11:33:16.585Z,10.20
2023-04-17T11:34:20.479Z,11.00
2023-04-17T11:35:27.701Z,10.20
2023-04-17T11:36:32.948Z,10.30
2023-04-17T11:37:35.868Z,10.50
2023-04-17T11:38:47.605Z,10.00
2023-04-17T11:39:50.518Z,9.40
2023-04-17T11:40:56.560Z,9.70
2023-04-17T11:42:00.630Z,9.60
2023-04-17T11:43:07.300Z,8.60
2023-04-17T11:44:12.268Z,8.50
2023-04-17T11:45:15.206Z,9.40
2023-04-17T11:46:19.289Z,10.20
2023-04-17T11:47:23.766Z,9.10
2023-04-17T11:48:28.656Z,9.80
2023-04-17T11:49:33.219Z,9.80
2023-04-17T11:50:36.328Z,8.70
2023-04-17T11:51:39.227Z,8.70
2023-04-17T11:52:43.108Z,8.80
2023-04-17T11:53:48.109Z,9.30
2023-04-17T11:54:59.018Z,8.30
2023-04-17T11:56:18.877Z,9.10
2023-04-17T11:57:22.303Z,8.40
2023-04-17T11:58:25.441Z,8.10
2023-04-17T11:59:37.321Z,8.90
2023-04-17T12:00:41.736Z,9.30
2023-04-17T12:01:52.313Z,9.30
2023-04-17T12:02:57.592Z,8.40
2023-04-17T12:04:01.113Z,8.10
2023-04-17T12:05:14.692Z,9.20
2023-04-17T12:06:17.946Z,8.10
2023-04-17T12:07:24.262Z,8.50
2023-04-17T12:08:27.430Z,8.80
2023-04-17T12:09:33.844Z,8.60
2023-04-17T12:10:41.896Z,8.60
2023-04-17T12:11:44.793Z,8.00
2023-04-17T12:12:47.812Z,7.60
2023-04-17T12:13:55.298Z,7.40
2023-04-17T12:14:59.276Z,7.90
2023-04-17T12:16:02.276Z,7.60
2023-04-17T12:17:05.194Z,7.40
2023-04-17T12:18:09.433Z,7.10
2023-04-17T12:19:16.822Z,7.20
2023-04-17T12:20:19.661Z,7.30
2023-04-17T12:21:24.079Z,7.00
2023-04-17T12:22:27.160Z,7.50
2023-04-17T12:23:30.168Z,7.10
2023-04-17T12:24:32.977Z,7.20
2023-04-17T12:25:35.955Z,7.50
2023-04-17T12:26:47.578Z,7.70
2023-04-17T12:27:50.394Z,7.40
2023-04-17T12:28:53.327Z,7.00
2023-04-17T12:29:56.156Z,6.40
2023-04-17T12:30:59.128Z,6.80
2023-04-17T12:32:02.111Z,6.50
2023-04-17T12:33:06.826Z,6.80
2023-04-17T12:34:09.786Z,7.00
2023-04-17T12:35:12.645Z,6.60
2023-04-17T12:36:15.647Z,7.10
2023-04-17T12:37:18.780Z,6.80
2023-04-17T12:38:23.328Z,6.80
2023-04-17T12:39:26.197Z,7.00
2023-04-17T12:40:29.075Z,7.20
2023-04-17T12:41:32.085Z,6.80
2023-04-17T12:42:46.235Z,6.40
2023-04-17T12:43:51.993Z,6.20
2023-04-17T12:44:54.856Z,6.90
2023-04-17T12:45:58.731Z,6.90
2023-04-17T12:47:01.941Z,6.40
2023-04-17T12:48:06.021Z,6.40
2023-04-17T12:49:09.044Z,6.70
2023-04-17T12:50:12.274Z,6.60
2023-04-17T12:51:15.212Z,7.10
2023-04-17T12:52:18.059Z,6.20
2023-04-17T12:53:21.018Z,6.20
2023-04-17T12:54:23.878Z,6.60
2023-04-17T12:55:26.748Z,7.00
2023-04-17T12:56:29.698Z,6.30
2023-04-17T12:57:32.633Z,6.40
2023-04-17T12:58:35.554Z,5.90
2023-04-17T12:59:39.752Z,5.90
2023-04-17T13:00:44.564Z,6.50
2023-04-17T13:01:47.713Z,6.40
2023-04-17T13:02:50.950Z,6.00
2023-04-17T13:03:54.138Z,6.00
2023-04-17T13:04:57.539Z,6.00
2023-04-17T13:06:00.672Z,6.70
2023-04-17T13:07:03.653Z,7.00
2023-04-17T13:08:06.646Z,7.40
2023-04-17T13:09:09.586Z,6.70
2023-04-17T13:10:12.473Z,6.80
2023-04-17T13:11:15.348Z,6.60
2023-04-17T13:12:18.288Z,7.00
2023-04-17T13:13:21.191Z,6.50
2023-04-17T13:14:24.010Z,6.50
2023-04-17T13:15:27.047Z,6.20
2023-04-17T13:16:30.182Z,6.10
2023-04-17T13:17:33.706Z,6.60
2023-04-17T13:18:37.578Z,6.20
2023-04-17T13:19:40.586Z,5.80
2023-04-17T13:20:43.443Z,6.50
2023-04-17T13:21:46.374Z,6.70
2023-04-17T13:22:49.486Z,6.10
2023-04-17T13:23:52.424Z,6.80
2023-04-17T13:24:55.319Z,6.60
2023-04-17T13:25:58.349Z,7.00
2023-04-17T13:27:01.684Z,6.50
2023-04-17T13:28:04.830Z,6.80
2023-04-17T13:29:07.670Z,6.60
2023-04-17T13:30:10.949Z,6.60
2023-04-17T13:31:14.492Z,6.80
2023-04-17T13:32:17.454Z,6.60
2023-04-17T13:33:20.411Z,6.50
2023-04-17T13:34:23.286Z,5.70
2023-04-17T13:35:26.115Z,6.00
2023-04-17T13:36:29.613Z,6.20
2023-04-17T13:37:32.534Z,6.50
2023-04-17T13:38:35.372Z,6.50
2023-04-17T13:39:38.354Z,5.80
2023-04-17T13:40:41.317Z,7.20
2023-04-17T13:41:44.302Z,6.80
2023-04-17T13:42:47.349Z,7.10
2023-04-17T13:43:50.383Z,6.70
2023-04-17T13:44:53.323Z,6.20
2023-04-17T13:45:57.047Z,6.60
2023-04-17T13:47:00.349Z,6.90
2023-04-17T13:48:03.428Z,6.80
2023-04-17T13:49:06.438Z,7.20
2023-04-17T13:50:09.947Z,5.80
2023-04-17T13:51:13.838Z,6.50
2023-04-17T13:52:16.663Z,5.90
2023-04-17T13:53:19.871Z,5.70
2023-04-17T13:54:22.687Z,5.10
2023-04-17T13:55:25.702Z,5.50
2023-04-17T13:56:28.966Z,5.20
2023-04-17T13:57:31.894Z,5.40
2023-04-17T13:58:34.845Z,4.80
2023-04-17T13:59:37.862Z,4.90
2023-04-17T14:00:40.836Z,4.60
2023-04-17T14:01:43.708Z,4.90
2023-04-17T14:02:46.782Z,4.40